Time;durP1;ratioP1;P1;durP2;ratioP2;P2;SDS_P1;SDS_P2;PMS_P1;PMS_P2;Temp;Humidity;BMP_temperature;BMP_pressure;BME280_temperature;BME280_humidity;BME280_pressure;Samples;Min_cycle;Max_cycle;Signal;HPM_P1;HPM_P2
2022/05/26 00:01:26;;;;;;;34.67;6.90;;;;;;;;;;4965727;28;20035;-75
2022/05/26 00:03:53;;;;;;;34.22;7.55;;;;;;;;;;4961750;28;20057;-75
2022/05/26 00:06:20;;;;;;;41.55;7.95;;;;;;;;;;4973348;28;20067;-76
2022/05/26 00:08:46;;;;;;;40.30;7.68;;;;;;;;;;4967710;28;20129;-74
2022/05/26 00:11:14;;;;;;;29.52;6.50;;;;;;;;;;4972359;28;20066;-74
2022/05/26 00:13:41;;;;;;;41.60;7.82;;;;;;;;;;4970125;28;20042;-74
2022/05/26 00:16:08;;;;;;;40.58;7.70;;;;;;;;;;4973435;28;20089;-74
2022/05/26 00:18:34;;;;;;;42.20;7.72;;;;;;;;;;4969874;28;20034;-75
2022/05/26 00:21:00;;;;;;;49.47;7.57;;;;;;;;;;4969988;28;20065;-74
2022/05/26 00:23:26;;;;;;;34.47;6.85;;;;;;;;;;4966276;28;20063;-75
2022/05/26 00:25:52;;;;;;;36.58;6.45;;;;;;;;;;4971663;28;20085;-75
2022/05/26 00:28:18;;;;;;;47.40;6.95;;;;;;;;;;4971500;28;20556;-75
2022/05/26 00:30:44;;;;;;;39.17;8.40;;;;;;;;;;4971099;28;20034;-74
2022/05/26 00:33:10;;;;;;;39.63;7.95;;;;;;;;;;4969684;28;20178;-74
2022/05/26 00:35:40;;;;;;;45.95;7.97;;;;;;;;;;4971506;28;20390;-75
2022/05/26 00:38:07;;;;;;;46.08;9.00;;;;;;;;;;4971248;28;20034;-74
2022/05/26 00:40:33;;;;;;;47.20;9.20;;;;;;;;;;4972848;28;20023;-74
2022/05/26 00:42:59;;;;;;;40.47;7.18;;;;;;;;;;4971496;28;20035;-75
2022/05/26 00:45:33;;;;;;;39.10;7.00;;;14.20;99.90;;;;;;4970433;28;20033;-74
2022/05/26 00:48:00;;;;;;;32.43;8.80;;;;;;;;;;4968104;28;20085;-74
2022/05/26 00:50:30;;;;;;;45.30;8.35;;;;;;;;;;4952979;28;20031;-74
2022/05/26 00:52:58;;;;;;;49.30;8.77;;;;;;;;;;4959017;28;20031;-74
2022/05/26 00:55:24;;;;;;;45.70;12.50;;;;;;;;;;4969848;28;20476;-74
2022/05/26 00:58:03;;;;;;;50.42;8.77;;;;;;;;;;4971530;28;20095;-74
2022/05/26 01:00:31;;;;;;;40.05;8.02;;;;;;;;;;4970442;28;20054;-75
2022/05/26 01:02:57;;;;;;;55.42;10.23;;;;;;;;;;4968809;28;20389;-74
2022/05/26 01:05:26;;;;;;;46.13;8.50;;;;;;;;;;4965278;28;20039;-75
2022/05/26 01:07:53;;;;;;;52.30;9.65;;;;;;;;;;4953083;28;20039;-75
2022/05/26 01:10:19;;;;;;;49.45;7.93;;;;;;;;;;4971413;28;20053;-75
2022/05/26 01:12:45;;;;;;;37.33;7.18;;;;;;;;;;4971362;28;20069;-75
2022/05/26 01:15:13;;;;;;;50.03;7.80;;;;;;;;;;4977477;28;20073;-75
2022/05/26 01:17:41;;;;;;;46.85;8.02;;;;;;;;;;4955633;28;20535;-75
2022/05/26 01:20:25;;;;;;;52.28;10.13;;;;;;;;;;4970843;28;20034;-74
2022/05/26 01:22:57;;;;;;;51.28;8.80;;;;;;;;;;4971032;28;20069;-75
2022/05/26 01:25:23;;;;;;;46.50;8.65;;;;;;;;;;4970702;28;20089;-75
2022/05/26 01:27:57;;;;;;;52.25;8.93;;;;;;;;;;4973882;28;20442;-75
2022/05/26 01:30:36;;;;;;;47.10;8.68;;;;;;;;;;4988247;28;20118;-74
2022/05/26 01:33:08;;;;;;;55.05;7.93;;;;;;;;;;4975787;28;20031;-74
2022/05/26 01:35:37;;;;;;;46.67;8.85;;;;;;;;;;4974222;28;20494;-75
2022/05/26 01:38:03;;;;;;;43.80;7.78;;;;;;;;;;4965992;28;20039;-74
2022/05/26 01:40:52;;;;;;;47.85;8.98;;;14.20;99.90;;;;;;4973132;28;20033;-75
2022/05/26 01:43:55;;;;;;;51.97;9.10;;;14.00;99.90;;;;;;4973363;28;20065;-75
2022/05/26 01:46:28;;;;;;;47.92;8.32;;;;;;;;;;4966803;28;20035;-75
2022/05/26 01:49:03;;;;;;;55.70;9.68;;;;;;;;;;4969642;28;20058;-74
2022/05/26 01:51:35;;;;;;;45.75;9.02;;;;;;;;;;4976051;28;20023;-75
2022/05/26 01:54:30;;;;;;;48.08;9.40;;;;;;;;;;4978289;28;20030;-74
2022/05/26 01:57:05;;;;;;;48.03;8.65;;;;;;;;;;4945027;28;20118;-74
2022/05/26 01:59:40;;;;;;;58.67;10.00;;;;;;;;;;4973242;28;20070;-74
2022/05/26 02:02:10;;;;;;;47.40;7.82;;;;;;;;;;4972553;28;20038;-74
2022/05/26 02:04:44;;;;;;;45.67;8.43;;;;;;;;;;4980730;28;20077;-75
2022/05/26 02:07:18;;;;;;;48.85;9.77;;;;;;;;;;4975549;28;20035;-75
2022/05/26 02:09:45;;;;;;;45.72;9.82;;;;;;;;;;4969765;28;20063;-75
2022/05/26 02:12:22;;;;;;;46.38;8.48;;;;;;;;;;4988373;28;20102;-75
2022/05/26 02:14:50;;;;;;;57.75;10.65;;;;;;;;;;4975094;28;20035;-75
2022/05/26 02:17:23;;;;;;;44.13;7.10;;;;;;;;;;4972804;28;20034;-75
2022/05/26 02:19:52;;;;;;;46.15;8.82;;;;;;;;;;4973262;28;20035;-75
2022/05/26 02:22:32;;;;;;;38.85;7.43;;;;;;;;;;4972669;28;20030;-75
2022/05/26 02:25:07;;;;;;;39.78;8.48;;;13.70;99.90;;;;;;4974476;28;20027;-75
2022/05/26 02:27:34;;;;;;;38.05;7.97;;;;;;;;;;4974468;28;20043;-76
2022/05/26 02:30:01;;;;;;;44.05;7.28;;;;;;;;;;4969678;28;20031;-75
2022/05/26 02:32:38;;;;;;;45.33;7.82;;;;;;;;;;4973667;28;20121;-75
2022/05/26 02:35:26;;;;;;;25.40;5.28;;;;;;;;;;4974211;28;20494;-75
2022/05/26 02:37:56;;;;;;;23.77;4.53;;;13.90;99.90;;;;;;4983715;28;20026;-75
2022/05/26 02:40:22;;;;;;;26.55;5.40;;;;;;;;;;4976443;28;20038;-76
2022/05/26 02:42:51;;;;;;;18.02;3.47;;;;;;;;;;4965444;28;20057;-76
2022/05/26 02:45:20;;;;;;;10.07;3.22;;;;;;;;;;4974241;28;20026;-76
2022/05/26 02:47:58;;;;;;;15.63;2.42;;;;;;;;;;4957005;28;20419;-76
2022/05/26 02:50:39;;;;;;;15.90;2.83;;;;;;;;;;4973422;28;20031;-76
2022/05/26 02:53:11;;;;;;;21.27;3.17;;;;;;;;;;4975980;28;20062;-76
2022/05/26 02:55:43;;;;;;;13.07;2.38;;;;;;;;;;4971898;28;20094;-76
2022/05/26 02:58:09;;;;;;;;;;;;;;;;;;4972475;28;20023;-76
2022/05/26 03:00:46;;;;;;;15.82;2.20;;;;;;;;;;4972530;28;19914;-76
2022/05/26 03:03:19;;;;;;;10.40;1.92;;;;;;;;;;4971727;28;20034;-75
2022/05/26 03:05:45;;;;;;;16.48;2.67;;;;;;;;;;4973019;28;20034;-75
2022/05/26 03:08:13;;;;;;;13.10;2.40;;;;;;;;;;4970632;28;20081;-75
2022/05/26 03:10:39;;;;;;;18.15;2.17;;;;;;;;;;4974439;28;20102;-75
2022/05/26 03:13:08;;;;;;;10.55;1.95;;;;;;;;;;4972695;28;20043;-76
2022/05/26 03:15:34;;;;;;;13.82;2.15;;;;;;;;;;4971432;28;20493;-75
2022/05/26 03:18:03;;;;;;;13.32;2.88;;;;;;;;;;4973201;28;20170;-75
2022/05/26 03:20:29;;;;;;;11.07;1.75;;;;;;;;;;4972610;28;20035;-75
2022/05/26 03:22:55;;;;;;;6.57;1.65;;;;;;;;;;4972719;28;20467;-75
2022/05/26 03:25:21;;;;;;;9.77;1.45;;;;;;;;;;4966210;28;20039;-75
2022/05/26 03:27:47;;;;;;;8.15;1.52;;;;;;;;;;4974359;28;20034;-76
2022/05/26 03:30:13;;;;;;;16.17;1.52;;;;;;;;;;4983943;28;20058;-75
2022/05/26 03:32:41;;;;;;;7.63;1.50;;;;;;;;;;4956372;28;20081;-75
2022/05/26 03:40:56;;;;;;;13.00;2.35;;;;;;;;;;4973750;28;20061;-75
2022/05/26 03:43:24;;;;;;;13.75;2.25;;;;;;;;;;4973566;28;20043;-76
2022/05/26 03:45:50;;;;;;;13.93;1.77;;;;;;;;;;4973428;28;20482;-75
2022/05/26 03:48:16;;;;;;;9.23;1.60;;;;;;;;;;4972583;28;20031;-75
2022/05/26 03:50:42;;;;;;;10.32;1.67;;;;;;;;;;4961324;28;20495;-75
2022/05/26 03:53:08;;;;;;;8.02;1.48;;;;;;;;;;4927337;28;20046;-75
2022/05/26 03:55:34;;;;;;;10.85;1.58;;;;;;;;;;4970916;28;20109;-75
2022/05/26 03:58:01;;;;;;;8.88;1.33;;;;;;;;;;4968177;28;20471;-75
2022/05/26 04:00:28;;;;;;;10.40;1.80;;;;;;;;;;4972104;28;20439;-76
2022/05/26 04:02:54;;;;;;;8.77;1.70;;;;;;;;;;4971775;28;20033;-75
2022/05/26 04:05:20;;;;;;;11.90;1.50;;;;;;;;;;4975817;28;20385;-75
2022/05/26 04:07:46;;;;;;;9.00;2.13;;;;;;;;;;4971869;28;20359;-75
2022/05/26 04:10:12;;;;;;;7.72;1.48;;;;;;;;;;4970159;28;20126;-75
2022/05/26 04:12:39;;;;;;;8.35;2.55;;;;;;;;;;4971257;28;20039;-75
2022/05/26 04:15:06;;;;;;;9.25;1.60;;;;;;;;;;4971890;28;20467;-75
2022/05/26 04:17:32;;;;;;;8.88;1.35;;;;;;;;;;4971915;28;20470;-75
2022/05/26 04:19:58;;;;;;;10.05;1.30;;;;;;;;;;4979829;28;20026;-75
2022/05/26 04:22:24;;;;;;;8.48;1.40;;;;;;;;;;4969377;28;20053;-75
2022/05/26 04:24:52;;;;;;;6.22;1.00;;;;;;;;;;4972743;28;20022;-75
2022/05/26 04:27:19;;;;;;;10.63;1.63;;;;;;;;;;4954775;28;20035;-75
2022/05/26 04:29:45;;;;;;;12.55;1.20;;;;;;;;;;4946882;28;20042;-76
2022/05/26 04:32:12;;;;;;;13.52;1.45;;;;;;;;;;4968081;28;20042;-75
2022/05/26 04:34:38;;;;;;;6.70;1.13;;;;;;;;;;4964832;28;20026;-75
2022/05/26 04:37:05;;;;;;;9.38;2.17;;;;;;;;;;4980306;28;20034;-76
2022/05/26 04:39:31;;;;;;;7.13;1.08;;;;;;;;;;4971559;28;20043;-76
2022/05/26 04:41:59;;;;;;;5.00;1.10;;;;;;;;;;4968940;28;20030;-74
2022/05/26 04:44:26;;;;;;;10.68;3.45;;;;;;;;;;4961011;28;20363;-74
2022/05/26 04:46:52;;;;;;;12.85;2.03;;;;;;;;;;4969823;28;20027;-74
2022/05/26 04:49:18;;;;;;;8.90;1.52;;;;;;;;;;4968365;28;20037;-74
2022/05/26 04:51:44;;;;;;;11.80;1.40;;;;;;;;;;4978321;28;21240;-74
2022/05/26 04:54:10;;;;;;;7.25;1.45;;;;;;;;;;4967295;28;20106;-75
2022/05/26 04:56:36;;;;;;;11.70;1.35;;;;;;;;;;4973386;28;20174;-75
2022/05/26 04:59:05;;;;;;;7.03;1.77;;;;;;;;;;4977737;28;20104;-75
2022/05/26 05:01:31;;;;;;;4.72;1.10;;;;;;;;;;4976002;28;20038;-75
2022/05/26 05:03:57;;;;;;;8.00;1.30;;;;;;;;;;4965910;28;20035;-75
2022/05/26 05:06:23;;;;;;;6.82;1.42;;;;;;;;;;4952183;28;20058;-75
2022/05/26 05:08:49;;;;;;;10.30;1.58;;;;;;;;;;4976254;28;20030;-75
2022/05/26 05:11:15;;;;;;;11.52;1.63;;;;;;;;;;4969387;28;20424;-75
2022/05/26 05:13:42;;;;;;;9.63;2.33;;;;;;;;;;4958801;28;20074;-75
2022/05/26 05:16:08;;;;;;;9.43;1.20;;;;;;;;;;4967726;28;20035;-75
2022/05/26 05:18:34;;;;;;;8.15;1.20;;;;;;;;;;4979753;28;20534;-74
2022/05/26 05:21:04;;;;;;;7.22;1.33;;;;;;;;;;4974056;28;20033;-76
2022/05/26 05:23:30;;;;;;;5.85;0.90;;;;;;;;;;4975704;28;20093;-75
2022/05/26 05:25:57;;;;;;;6.63;0.93;;;;;;;;;;4966375;28;20041;-76
2022/05/26 05:28:29;;;;;;;8.00;1.35;;;;;;;;;;4978283;28;20066;-75
2022/05/26 05:31:00;;;;;;;4.55;0.88;;;;;;;;;;4976579;28;20034;-77
2022/05/26 05:33:31;;;;;;;6.15;0.98;;;;;;;;;;4975760;28;20027;-76
2022/05/26 05:36:08;;;;;;;5.45;0.90;;;;;;;;;;4975914;28;20110;-76
2022/05/26 05:38:35;;;;;;;8.20;1.10;;;;;;;;;;4973498;28;20538;-77
2022/05/26 05:41:04;;;;;;;7.55;1.17;;;;;;;;;;4978207;28;20057;-78
2022/05/26 05:43:31;;;;;;;4.72;0.98;;;;;;;;;;4937320;28;20086;-77
2022/05/26 05:45:57;;;;;;;11.20;1.30;;;;;;;;;;4972611;28;20042;-75
2022/05/26 05:48:24;;;;;;;12.25;3.47;;;;;;;;;;4970929;28;20360;-72
2022/05/26 05:50:51;;;;;;;9.00;1.98;;;;;;;;;;4980244;28;20030;-76
2022/05/26 05:53:17;;;;;;;4.45;1.20;;;;;;;;;;4995286;28;20027;-75
2022/05/26 05:55:43;;;;;;;6.43;0.85;;;;;;;;;;4974948;28;20743;-75
2022/05/26 05:58:10;;;;;;;7.95;1.17;;;;;;;;;;4973126;28;20038;-75
2022/05/26 06:00:39;;;;;;;8.23;1.23;;;;;;;;;;4974584;28;20014;-75
2022/05/26 06:03:06;;;;;;;5.60;1.55;;;;;;;;;;4965064;28;20035;-76
2022/05/26 06:05:32;;;;;;;3.22;0.80;;;;;;;;;;4963141;28;20039;-76
2022/05/26 06:07:59;;;;;;;6.65;1.27;;;;;;;;;;4973375;28;20030;-75
2022/05/26 06:10:25;;;;;;;5.93;1.42;;;;;;;;;;4947401;28;20058;-75
2022/05/26 06:12:51;;;;;;;3.42;0.88;;;;;;;;;;4972567;28;20035;-75
2022/05/26 06:15:18;;;;;;;6.07;1.08;;;;;;;;;;4975230;28;20026;-75
2022/05/26 06:17:44;;;;;;;5.15;0.88;;;;;;;;;;4957166;28;20138;-75
2022/05/26 06:20:10;;;;;;;11.02;1.90;;;;;;;;;;4976094;28;20058;-75
2022/05/26 06:22:37;;;;;;;6.22;1.20;;;;;;;;;;4967979;28;20043;-76
2022/05/26 06:25:05;;;;;;;6.50;0.90;;;;;;;;;;4974704;28;20023;-75
2022/05/26 06:30:17;;;;;;;5.50;1.13;;;;;;;;;;4973933;28;20505;-74
2022/05/26 06:38:18;;;;;;;7.35;1.17;;;;;;;;;;4979959;28;20441;-75
2022/05/26 06:40:44;;;;;;;5.28;1.13;;;;;;;;;;4978840;28;20531;-74
2022/05/26 06:43:10;;;;;;;3.05;0.60;;;;;;;;;;4974288;28;20062;-75
2022/05/26 06:45:36;;;;;;;5.60;0.85;;;;;;;;;;4965020;28;20098;-75
2022/05/26 06:48:03;;;;;;;5.57;1.23;;;;;;;;;;4974035;28;20038;-76
2022/05/26 06:50:29;;;;;;;6.07;0.82;;;;;;;;;;4972888;28;20534;-76
2022/05/26 06:52:55;;;;;;;8.25;1.35;;;;;;;;;;4963578;28;20071;-76
2022/05/26 06:55:21;;;;;;;8.27;1.17;;;;;;;;;;4962823;28;20063;-75
2022/05/26 06:57:47;;;;;;;6.15;0.90;;;;;;;;;;4973463;28;20501;-74
2022/05/26 07:00:15;;;;;;;6.65;1.10;;;;;;;;;;4971919;28;20035;-73
2022/05/26 07:02:41;;;;;;;5.55;1.42;;;;;;;;;;4968252;28;20030;-75
2022/05/26 07:05:08;;;;;;;10.32;1.88;;;;;;;;;;4970163;28;20062;-74
2022/05/26 07:07:35;;;;;;;9.07;1.02;;;;;;;;;;4971665;28;20101;-77
2022/05/26 07:10:01;;;;;;;5.00;1.55;;;;;;;;;;4972343;28;20047;-77
2022/05/26 07:12:27;;;;;;;6.35;0.88;;;;;;;;;;4971341;28;20031;-77
2022/05/26 07:14:54;;;;;;;7.05;1.30;;;;;;;;;;4955318;28;20777;-77
2022/05/26 07:17:20;;;;;;;7.50;1.05;;;;;;;;;;4969580;28;20059;-75
2022/05/26 07:19:46;;;;;;;9.05;1.20;;;;;;;;;;4974219;28;20051;-77
2022/05/26 07:22:13;;;;;;;6.40;1.48;;;;;;;;;;4968112;28;20065;-75
2022/05/26 07:24:40;;;;;;;6.25;0.98;;;;;;;;;;4972406;28;20077;-75
2022/05/26 07:27:06;;;;;;;5.43;1.23;;;;;;;;;;4970392;28;20035;-75
2022/05/26 07:29:32;;;;;;;4.63;0.85;;;;;;;;;;4972706;28;20031;-75
2022/05/26 07:32:00;;;;;;;10.15;1.10;;;;;;;;;;4974855;28;20402;-75
2022/05/26 07:34:26;;;;;;;3.72;1.10;;;;;;;;;;4989645;28;20037;-75
2022/05/26 07:42:23;;;;;;;7.63;1.17;;;;;;;;;;4968651;28;20062;-75
2022/05/26 07:44:50;;;;;;;10.23;1.30;;;;;;;;;;4971585;28;20023;-76
2022/05/26 07:47:16;;;;;;;5.57;1.00;;;;;;;;;;4972027;28;20042;-75
2022/05/26 07:49:44;;;;;;;8.52;1.13;;;;;;;;;;4962209;28;20050;-76
2022/05/26 07:52:11;;;;;;;6.40;1.65;;;;;;;;;;4970197;28;20114;-76
2022/05/26 07:54:37;;;;;;;6.78;0.93;;;;;;;;;;4971817;28;20027;-75
2022/05/26 07:57:04;;;;;;;6.03;1.00;;;;;;;;;;4972941;28;20113;-75
2022/05/26 07:59:30;;;;;;;13.85;1.40;;;;;;;;;;4956761;28;20455;-75
2022/05/26 08:01:58;;;;;;;3.80;0.93;;;;;;;;;;4969151;28;20269;-76
2022/05/26 08:04:24;;;;;;;11.10;1.48;;;;;;;;;;4972149;28;20467;-76
2022/05/26 08:06:50;;;;;;;4.97;0.90;;;;;;;;;;4968674;28;20070;-76
2022/05/26 08:09:20;;;;;;;5.03;0.88;;;17.90;99.90;;;;;;4953932;28;20491;-76
2022/05/26 08:11:47;;;;;;;10.25;1.00;;;;;;;;;;4964909;28;20030;-76
2022/05/26 08:14:13;;;;;;;6.10;0.90;;;;;;;;;;4970641;28;20442;-76
2022/05/26 08:16:39;;;;;;;4.57;0.80;;;;;;;;;;4972790;28;20379;-76
2022/05/26 08:19:06;;;;;;;8.10;0.80;;;;;;;;;;4971968;28;20114;-76
2022/05/26 08:21:32;;;;;;;4.75;1.55;;;;;;;;;;4972359;28;20035;-76
2022/05/26 08:24:00;;;;;;;6.53;1.05;;;;;;;;;;4965608;28;20109;-76
2022/05/26 08:26:26;;;;;;;6.55;0.82;;;;;;;;;;4972133;28;20046;-76
2022/05/26 08:28:52;;;;;;;4.72;0.93;;;;;;;;;;4972963;28;20486;-76
2022/05/26 08:31:18;;;;;;;6.50;0.93;;;;;;;;;;4969224;28;20153;-75
2022/05/26 08:33:45;;;;;;;6.55;1.40;;;;;;;;;;4968484;28;20042;-75
2022/05/26 08:36:15;;;;;;;7.80;0.90;;;;;;;;;;4971138;28;20471;-76
2022/05/26 08:38:43;;;;;;;7.57;0.98;;;;;;;;;;4965598;28;20046;-76
2022/05/26 08:41:13;;;;;;;7.30;0.85;;;;;;;;;;4970553;28;20035;-76
2022/05/26 08:43:41;;;;;;;4.68;0.98;;;;;;;;;;4970354;28;20039;-76
2022/05/26 08:46:12;;;;;;;7.97;1.30;;;20.60;99.90;;;;;;4963755;28;20027;-76
2022/05/26 08:48:44;;;;;;;3.77;0.67;;;;;;;;;;4971192;28;20039;-76
2022/05/26 08:51:12;;;;;;;6.95;0.82;;;;;;;;;;4972642;28;20042;-76
2022/05/26 08:53:39;;;;;;;3.92;0.80;;;;;;;;;;4972859;28;20459;-76
2022/05/26 08:56:08;;;;;;;8.02;0.80;;;;;;;;;;4957904;28;20027;-76
2022/05/26 08:58:37;;;;;;;4.80;0.73;;;;;;;;;;4972266;28;20031;-76
2022/05/26 09:01:05;;;;;;;5.05;0.80;;;19.50;99.90;;;;;;4970798;28;20027;-76
2022/05/26 09:03:36;;;;;;;3.28;0.57;;;;;;;;;;4967745;28;20034;-75
2022/05/26 09:06:02;;;;;;;3.33;0.70;;;;;;;;;;4967846;28;20109;-76
2022/05/26 09:14:07;;;;;;;3.70;0.55;;;;;;;;;;4968617;28;20471;-77
2022/05/26 09:16:40;;;;;;;4.88;0.77;;;;;;;;;;4963100;28;20105;-77
2022/05/26 09:19:10;;;;;;;5.03;1.00;;;;;;;;;;4964322;28;20152;-76
2022/05/26 09:21:37;;;;;;;5.88;1.15;;;;;;;;;;4969618;28;20035;-76
2022/05/26 09:24:26;;;;;;;5.82;0.93;;;;;;;;;;4969195;28;20041;-75
2022/05/26 09:26:54;;;;;;;4.70;0.95;;;;;;;;;;4967812;28;20098;-71
2022/05/26 09:29:23;;;;;;;5.85;1.48;;;;;;;;;;4966796;28;20121;-73
2022/05/26 09:31:49;;;;;;;4.80;0.88;;;22.90;96.70;;;;;;4969769;28;20093;-74
2022/05/26 09:34:15;;;;;;;2.67;1.13;;;;;;;;;;4966555;28;20038;-76
2022/05/26 09:36:44;;;;;;;2.78;0.60;;;;;;;;;;4969038;28;20062;-76
2022/05/26 09:39:11;;;;;;;2.58;0.65;;;;;;;;;;4970653;28;20031;-76
2022/05/26 09:41:43;;;;;;;3.28;0.75;;;22.80;96.60;;;;;;4968251;28;20098;-79
2022/05/26 09:44:23;;;;;;;4.60;0.60;;;;;;;;;;4964979;28;20075;-77
2022/05/26 09:46:51;;;;;;;4.60;1.45;;;23.10;95.80;;;;;;4969681;28;20030;-77
2022/05/26 09:49:21;;;;;;;3.58;0.95;;;;;;;;;;4964965;28;20885;-77
2022/05/26 09:51:49;;;;;;;8.32;0.88;;;;;;;;;;4966606;28;20487;-77
2022/05/26 09:54:24;;;;;;;8.05;1.02;;;;;;;;;;4972048;28;21143;-76
2022/05/26 09:56:50;;;;;;;5.70;0.90;;;;;;;;;;4972620;28;20130;-76
2022/05/26 09:59:24;;;;;;;9.27;0.90;;;;;;;;;;4973686;28;20105;-75
2022/05/26 10:01:50;;;;;;;3.50;0.85;;;;;;;;;;4972708;28;20048;-75
2022/05/26 10:04:25;;;;;;;2.35;0.80;;;;;;;;;;4952935;28;20089;-76
2022/05/26 10:07:05;;;;;;;6.07;0.95;;;24.00;95.50;;;;;;4968422;28;20031;-76
2022/05/26 10:10:10;;;;;;;13.63;5.68;;;23.70;95.70;;;;;;4947711;28;20141;-74
2022/05/26 10:13:00;;;;;;;4.00;1.00;;;23.30;93.50;;;;;;4955553;28;20041;-74
2022/05/26 10:15:54;;;;;;;4.35;1.10;;;23.10;94.00;;;;;;4967841;28;20379;-76
2022/05/26 10:18:28;;;;;;;4.05;0.98;;;;;;;;;;4970616;28;20497;-74
2022/05/26 10:21:11;;;;;;;5.10;0.93;;;;;;;;;;4975215;28;20114;-75
2022/05/26 10:23:37;;;;;;;6.55;1.27;;;;;;;;;;4971344;28;20106;-74
2022/05/26 10:26:06;;;;;;;2.40;0.68;;;;;;;;;;4974398;28;21054;-74
2022/05/26 10:28:41;;;;;;;3.03;0.77;;;;;;;;;;4968749;28;20034;-75
2022/05/26 10:31:15;;;;;;;4.55;1.10;;;22.70;99.90;;;;;;4973876;28;20083;-75
2022/05/26 10:33:57;;;;;;;9.48;1.00;;;;;;;;;;4972973;28;20680;-75
2022/05/26 10:36:24;;;;;;;5.53;0.63;;;;;;;;;;4974053;28;20493;-74
2022/05/26 10:39:22;;;;;;;7.75;1.02;;;22.70;97.70;;;;;;4951089;28;20043;-78
2022/05/26 10:42:00;;;;;;;3.72;0.82;;;;;;;;;;4975192;28;20562;-75
2022/05/26 10:44:26;;;;;;;6.60;1.30;;;;;;;;;;4972200;28;20034;-75
2022/05/26 10:47:06;;;;;;;5.63;1.52;;;22.20;98.90;;;;;;4974046;28;20037;-76
2022/05/26 10:49:41;;;;;;;4.65;1.50;;;22.60;98.70;;;;;;4966866;28;20113;-77
2022/05/26 10:52:27;;;;;;;7.93;1.27;;;;;;;;;;4960066;28;20034;-76
2022/05/26 10:55:07;;;;;;;5.28;0.90;;;;;;;;;;4949106;28;20117;-77
2022/05/26 10:57:38;;;;;;;7.20;1.65;;;22.40;99.90;;;;;;4972621;28;20031;-76
2022/05/26 11:00:04;;;;;;;6.38;1.58;;;;;;;;;;4968647;28;20071;-77
2022/05/26 11:02:33;;;;;;;4.10;1.00;;;;;;;;;;4971300;28;20046;-77
2022/05/26 11:05:04;;;;;;;6.28;1.10;;;;;;;;;;4972811;28;20030;-77
2022/05/26 11:07:52;;;;;;;5.60;1.07;;;;;;;;;;4974095;28;20045;-77
2022/05/26 11:10:54;;;;;;;6.35;0.90;;;;;;;;;;4969692;28;20062;-76
2022/05/26 11:13:41;;;;;;;7.93;1.27;;;;;;;;;;4877744;29;20108;-77
2022/05/26 11:19:08;;;;;;;7.03;1.60;;;21.50;99.90;;;;;;4960030;28;20049;-78
2022/05/26 11:21:34;;;;;;;10.88;1.77;;;21.60;99.90;;;;;;4974379;28;20033;-77
2022/05/26 11:24:00;;;;;;;9.05;1.35;;;;;;;;;;4967147;28;20038;-76
2022/05/26 11:27:09;;;;;;;4.03;1.05;;;21.60;99.90;;;;;;4956130;28;20479;-78
2022/05/26 11:29:40;;;;;;;3.90;0.95;;;21.40;99.90;;;;;;4874813;29;20235;-77
2022/05/26 11:37:58;;;;;;;6.90;1.40;;;;;;;;;;4970140;28;20081;-74
2022/05/26 11:40:36;;;;;;;5.90;1.52;;;;;;;;;;4968965;28;20077;-73
2022/05/26 11:43:07;;;;;;;4.03;1.20;;;;;;;;;;4971028;28;20022;-74
2022/05/26 11:45:36;;;;;;;7.18;1.23;;;;;;;;;;4966319;28;20043;-73
2022/05/26 11:48:03;;;;;;;5.13;1.55;;;;;;;;;;4958910;28;20031;-73
2022/05/26 11:50:48;;;;;;;5.75;1.48;;;;;;;;;;4955283;28;20060;-74
2022/05/26 11:53:35;;;;;;;6.90;1.20;;;;;;;;;;4966894;28;20041;-72
2022/05/26 11:56:21;;;;;;;9.45;2.42;;;;;;;;;;4972444;28;20027;-73
2022/05/26 11:59:07;;;;;;;12.45;2.53;;;;;;;;;;4937147;28;20035;-74
2022/05/26 12:01:36;;;;;;;5.13;1.05;;;21.90;99.90;;;;;;4972124;28;20422;-74
2022/05/26 12:04:21;;;;;;;7.63;1.50;;;;;;;;;;4969782;28;20030;-75
2022/05/26 12:06:55;;;;;;;10.55;1.65;;;;;;;;;;4967606;28;20513;-74
2022/05/26 12:09:44;;;;;;;6.35;1.30;;;21.50;99.90;;;;;;4961481;28;20093;-77
2022/05/26 12:12:16;;;;;;;5.88;0.95;;;;;;;;;;4951991;28;20027;-75
2022/05/26 12:14:43;;;;;;;4.53;0.93;;;;;;;;;;4968442;28;20356;-75
2022/05/26 12:17:28;;;;;;;6.85;1.20;;;;;;;;;;4955821;28;20094;-75
2022/05/26 12:19:54;;;;;;;12.02;1.58;;;;;;;;;;4965858;28;20387;-75
2022/05/26 12:22:30;;;;;;;6.13;1.45;;;21.20;99.90;;;;;;4962643;28;20038;-75
2022/05/26 12:24:57;;;;;;;7.20;1.48;;;;;;;;;;4968065;28;20038;-75
2022/05/26 12:27:48;;;;;;;4.55;1.10;;;21.30;99.90;;;;;;4970494;28;20110;-75
2022/05/26 12:30:30;;;;;;;4.22;1.05;;;;;;;;;;4971465;28;20106;-75
2022/05/26 12:32:56;;;;;;;7.15;1.67;;;;;;;;;;4971839;28;20026;-74
2022/05/26 12:35:54;;;;;;;7.32;1.35;;;;;;;;;;4964919;28;20031;-76
2022/05/26 12:38:39;;;;;;;8.60;1.33;;;;;;;;;;4916489;28;20047;-74
2022/05/26 12:41:28;;;;;;;6.72;1.20;;;;;;;;;;4970524;28;20038;-74
2022/05/26 12:44:03;;;;;;;4.32;1.50;;;;;;;;;;4917071;28;20141;-74
2022/05/26 12:46:49;;;;;;;5.35;1.20;;;21.00;99.90;;;;;;4965476;28;20525;-76
2022/05/26 12:49:54;;;;;;;4.97;1.00;;;21.00;99.90;;;;;;4962067;28;20051;-76
2022/05/26 12:52:38;;;;;;;9.80;1.38;;;20.80;99.90;;;;;;4970634;28;20098;-76
2022/05/26 12:55:23;;;;;;;9.80;1.58;;;;;;;;;;4971089;28;20130;-76
2022/05/26 12:58:07;;;;;;;8.20;1.60;;;;;;;;;;4958487;28;20549;-75
2022/05/26 13:00:33;;;;;;;10.65;1.27;;;;;;;;;;4967805;28;20062;-75
2022/05/26 13:03:03;;;;;;;11.68;1.77;;;20.70;99.90;;;;;;4970121;28;20039;-76
2022/05/26 13:05:33;;;;;;;7.47;1.27;;;20.60;99.90;;;;;;4971614;28;20031;-76
2022/05/26 13:08:00;;;;;;;7.18;1.17;;;;;;;;;;4963644;28;22785;-75
2022/05/26 13:10:28;;;;;;;7.82;1.58;;;;;;;;;;4950161;28;20118;-73
2022/05/26 13:12:54;;;;;;;55.08;33.63;;;20.50;99.90;;;;;;4968799;28;20034;-75
2022/05/26 13:15:25;;;;;;;7.63;1.83;;;;;;;;;;4971815;28;20035;-74
2022/05/26 13:17:52;;;;;;;7.68;1.10;;;20.50;99.90;;;;;;4962903;28;20460;-75
2022/05/26 13:20:23;;;;;;;8.57;1.30;;;;;;;;;;4952912;28;20035;-76
2022/05/26 13:22:49;;;;;;;8.50;1.43;;;;;;;;;;4960315;28;20035;-76
2022/05/26 13:25:24;;;;;;;6.28;1.65;;;20.20;99.90;;;;;;4961520;28;20053;-76
2022/05/26 13:27:54;;;;;;;7.15;1.20;;;20.20;99.90;;;;;;4971491;28;20038;-76
2022/05/26 13:33:23;;;;;;;7.13;1.30;;;;;;;;;;4886429;29;20041;-75
2022/05/26 13:35:54;;;;;;;7.47;1.85;;;;;;;;;;4971131;28;20031;-75
2022/05/26 13:38:34;;;;;;;5.80;1.25;;;20.90;99.90;;;;;;4968730;28;20054;-75
2022/05/26 13:41:01;;;;;;;7.30;1.35;;;;;;;;;;4974765;28;20037;-75
2022/05/26 13:43:28;;;;;;;10.20;2.17;;;20.70;99.90;;;;;;4973380;28;20061;-76
2022/05/26 13:45:59;;;;;;;5.45;1.10;;;20.60;99.90;;;;;;4973833;28;20085;-75
2022/05/26 13:48:25;;;;;;;11.95;1.55;;;;;;;;;;4973018;28;20034;-75
2022/05/26 13:50:53;;;;;;;10.88;1.30;;;20.50;99.90;;;;;;4965550;28;20043;-76
2022/05/26 13:53:20;;;;;;;9.75;1.50;;;;;;;;;;4974739;28;20463;-75
2022/05/26 13:55:48;;;;;;;7.00;1.23;;;20.90;99.90;;;;;;4974576;28;20026;-75
2022/05/26 13:58:16;;;;;;;6.07;1.30;;;;;;;;;;4957640;28;20035;-75
2022/05/26 14:00:42;;;;;;;5.45;1.00;;;;;;;;;;4972470;28;20390;-76
2022/05/26 14:03:22;;;;;;;5.55;1.02;;;;;;;;;;4955640;28;20042;-75
2022/05/26 14:05:57;;;;;;;7.15;1.70;;;;;;;;;;4969011;28;20053;-76
2022/05/26 14:08:23;;;;;;;9.50;1.30;;;;;;;;;;4971622;28;20106;-75
2022/05/26 14:10:53;;;;;;;11.27;1.40;;;;;;;;;;4970583;28;20435;-76
2022/05/26 14:13:19;;;;;;;7.35;1.17;;;;;;;;;;4975030;28;20027;-76
2022/05/26 14:15:54;;;;;;;9.10;1.05;;;20.30;99.90;;;;;;4972898;28;20097;-76
2022/05/26 14:18:25;;;;;;;6.47;1.13;;;;;;;;;;4939055;29;20485;-77
2022/05/26 14:21:14;;;;;;;6.32;1.40;;;19.60;99.90;;;;;;4965147;28;20387;-75
2022/05/26 14:23:46;;;;;;;7.03;1.52;;;;;;;;;;4962307;28;20078;-77
2022/05/26 14:26:21;;;;;;;10.02;1.77;;;;;;;;;;4970594;28;20062;-76
2022/05/26 14:28:47;;;;;;;10.68;1.75;;;;;;;;;;4969083;28;20074;-76
2022/05/26 14:31:20;;;;;;;10.13;1.95;;;;;;;;;;4951922;28;20031;-77
2022/05/26 14:33:57;;;;;;;9.23;2.50;;;19.60;99.90;;;;;;4965684;28;20031;-76
2022/05/26 14:36:23;;;;;;;9.60;2.08;;;;;;;;;;4967640;28;20039;-77
2022/05/26 14:38:49;;;;;;;8.30;2.10;;;;;;;;;;4971034;28;20035;-74
2022/05/26 14:41:15;;;;;;;17.85;5.93;;;;;;;;;;4966368;28;20170;-73
2022/05/26 14:43:41;;;;;;;8.30;2.45;;;;;;;;;;4968199;28;20102;-74
2022/05/26 14:46:07;;;;;;;8.48;1.92;;;;;;;;;;4970952;28;20688;-74
2022/05/26 14:48:33;;;;;;;10.27;2.00;;;;;;;;;;4970200;28;20134;-74
2022/05/26 14:50:59;;;;;;;17.50;2.30;;;;;;;;;;4963335;28;20034;-73
2022/05/26 14:56:12;;;;;;;14.00;3.60;;;;;;;;;;4953724;28;20043;-74
2022/05/26 14:58:38;;;;;;;11.13;2.45;;;;;;;;;;4966140;28;20026;-73
2022/05/26 15:01:04;;;;;;;12.23;2.20;;;;;;;;;;4968587;28;20590;-73
2022/05/26 15:03:30;;;;;;;10.13;2.25;;;;;;;;;;4968951;28;20042;-74
2022/05/26 15:05:58;;;;;;;8.52;2.00;;;;;;;;;;4970605;28;23154;-74
2022/05/26 15:08:28;;;;;;;10.40;2.95;;;;;;;;;;4971047;28;20033;-73
2022/05/26 15:10:54;;;;;;;9.73;1.92;;;;;;;;;;4972083;28;20059;-73
2022/05/26 15:13:20;;;;;;;8.50;1.63;;;;;;;;;;4972176;28;20023;-74
2022/05/26 15:15:46;;;;;;;10.75;2.03;;;;;;;;;;4966538;28;20105;-75
2022/05/26 15:18:12;;;;;;;10.27;2.30;;;;;;;;;;4971438;28;20640;-75
2022/05/26 15:20:38;;;;;;;8.43;1.65;;;;;;;;;;4962954;28;20071;-75